sensor_id;sensor_type;location;lat;lon;timestamp;P1;durP1;ratioP1;P2;durP2;ratioP2
32333;SDS011;18810;53.040;8.850;2023-09-07T00:01:31;4.97;;;4.40;;
32333;SDS011;18810;53.040;8.850;2023-09-07T00:03:56;7.35;;;5.53;;
32333;SDS011;18810;53.040;8.850;2023-09-07T00:06:22;5.10;;;4.60;;
32333;SDS011;18810;53.040;8.850;2023-09-07T00:08:48;5.30;;;4.63;;
32333;SDS011;18810;53.040;8.850;2023-09-07T00:11:14;5.57;;;5.07;;
32333;SDS011;18810;53.040;8.850;2023-09-07T00:13:39;5.15;;;4.65;;
32333;SDS011;18810;53.040;8.850;2023-09-07T00:16:05;5.25;;;4.75;;
32333;SDS011;18810;53.040;8.850;2023-09-07T00:18:31;5.25;;;4.72;;
32333;SDS011;18810;53.040;8.850;2023-09-07T00:20:58;6.68;;;5.15;;
32333;SDS011;18810;53.040;8.850;2023-09-07T00:23:24;5.22;;;4.78;;
32333;SDS011;18810;53.040;8.850;2023-09-07T00:25:50;7.18;;;4.82;;
32333;SDS011;18810;53.040;8.850;2023-09-07T00:28:16;7.22;;;4.75;;
32333;SDS011;18810;53.040;8.850;2023-09-07T00:30:41;5.00;;;4.53;;
32333;SDS011;18810;53.040;8.850;2023-09-07T00:33:08;5.15;;;4.65;;
32333;SDS011;18810;53.040;8.850;2023-09-07T00:35:34;6.22;;;5.13;;
32333;SDS011;18810;53.040;8.850;2023-09-07T00:38:00;5.32;;;4.88;;
32333;SDS011;18810;53.040;8.850;2023-09-07T00:40:25;5.75;;;5.25;;
32333;SDS011;18810;53.040;8.850;2023-09-07T00:42:51;5.88;;;5.35;;
32333;SDS011;18810;53.040;8.850;2023-09-07T00:45:18;6.20;;;5.35;;
32333;SDS011;18810;53.040;8.850;2023-09-07T00:47:44;6.45;;;5.70;;
32333;SDS011;18810;53.040;8.850;2023-09-07T00:50:10;6.97;;;5.45;;
32333;SDS011;18810;53.040;8.850;2023-09-07T00:52:39;5.93;;;5.13;;
32333;SDS011;18810;53.040;8.850;2023-09-07T00:55:07;5.47;;;4.97;;
32333;SDS011;18810;53.040;8.850;2023-09-07T00:57:33;5.53;;;5.03;;
32333;SDS011;18810;53.040;8.850;2023-09-07T00:59:59;5.70;;;5.20;;
32333;SDS011;18810;53.040;8.850;2023-09-07T01:02:25;6.05;;;5.45;;
32333;SDS011;18810;53.040;8.850;2023-09-07T01:04:51;5.65;;;5.15;;
32333;SDS011;18810;53.040;8.850;2023-09-07T01:07:18;7.63;;;5.85;;
32333;SDS011;18810;53.040;8.850;2023-09-07T01:09:49;6.35;;;5.28;;
32333;SDS011;18810;53.040;8.850;2023-09-07T01:12:17;8.48;;;6.05;;
32333;SDS011;18810;53.040;8.850;2023-09-07T01:14:43;6.30;;;5.70;;
32333;SDS011;18810;53.040;8.850;2023-09-07T01:17:09;5.93;;;5.43;;
32333;SDS011;18810;53.040;8.850;2023-09-07T01:19:36;6.80;;;5.40;;
32333;SDS011;18810;53.040;8.850;2023-09-07T01:22:02;6.63;;;5.50;;
32333;SDS011;18810;53.040;8.850;2023-09-07T01:24:28;6.18;;;5.57;;
32333;SDS011;18810;53.040;8.850;2023-09-07T01:26:55;6.70;;;6.00;;
32333;SDS011;18810;53.040;8.850;2023-09-07T01:29:22;9.88;;;6.25;;
32333;SDS011;18810;53.040;8.850;2023-09-07T01:31:48;6.10;;;5.50;;
32333;SDS011;18810;53.040;8.850;2023-09-07T01:34:14;6.78;;;5.80;;
32333;SDS011;18810;53.040;8.850;2023-09-07T01:36:40;7.22;;;6.38;;
32333;SDS011;18810;53.040;8.850;2023-09-07T01:39:06;7.22;;;6.53;;
32333;SDS011;18810;53.040;8.850;2023-09-07T01:41:33;6.13;;;5.53;;
32333;SDS011;18810;53.040;8.850;2023-09-07T01:43:59;6.97;;;6.28;;
32333;SDS011;18810;53.040;8.850;2023-09-07T01:46:25;7.18;;;6.47;;
32333;SDS011;18810;53.040;8.850;2023-09-07T01:48:51;6.30;;;5.70;;
32333;SDS011;18810;53.040;8.850;2023-09-07T01:51:17;6.60;;;6.00;;
32333;SDS011;18810;53.040;8.850;2023-09-07T01:53:42;6.15;;;5.60;;
32333;SDS011;18810;53.040;8.850;2023-09-07T01:56:08;6.00;;;5.50;;
32333;SDS011;18810;53.040;8.850;2023-09-07T01:58:34;7.55;;;6.22;;
32333;SDS011;18810;53.040;8.850;2023-09-07T02:01:01;8.02;;;6.30;;
32333;SDS011;18810;53.040;8.850;2023-09-07T02:03:27;6.95;;;6.22;;
32333;SDS011;18810;53.040;8.850;2023-09-07T02:05:53;6.75;;;6.05;;
32333;SDS011;18810;53.040;8.850;2023-09-07T02:08:19;7.65;;;6.70;;
32333;SDS011;18810;53.040;8.850;2023-09-07T02:10:45;8.20;;;6.43;;
32333;SDS011;18810;53.040;8.850;2023-09-07T02:13:10;6.32;;;5.78;;
32333;SDS011;18810;53.040;8.850;2023-09-07T02:15:37;7.13;;;6.53;;
32333;SDS011;18810;53.040;8.850;2023-09-07T02:18:04;6.63;;;6.03;;
32333;SDS011;18810;53.040;8.850;2023-09-07T02:20:31;6.80;;;6.10;;
32333;SDS011;18810;53.040;8.850;2023-09-07T02:22:59;7.00;;;6.10;;
32333;SDS011;18810;53.040;8.850;2023-09-07T02:25:25;7.35;;;6.57;;
32333;SDS011;18810;53.040;8.850;2023-09-07T02:27:52;7.50;;;6.75;;
32333;SDS011;18810;53.040;8.850;2023-09-07T02:30:18;7.10;;;6.40;;
32333;SDS011;18810;53.040;8.850;2023-09-07T02:32:44;8.77;;;6.80;;
32333;SDS011;18810;53.040;8.850;2023-09-07T02:35:09;8.10;;;6.95;;
32333;SDS011;18810;53.040;8.850;2023-09-07T02:37:35;8.07;;;7.20;;
32333;SDS011;18810;53.040;8.850;2023-09-07T02:40:01;7.80;;;6.93;;
32333;SDS011;18810;53.040;8.850;2023-09-07T02:42:31;7.40;;;6.70;;
32333;SDS011;18810;53.040;8.850;2023-09-07T02:44:57;7.38;;;6.53;;
32333;SDS011;18810;53.040;8.850;2023-09-07T02:47:22;7.28;;;6.53;;
32333;SDS011;18810;53.040;8.850;2023-09-07T02:49:48;7.45;;;6.63;;
32333;SDS011;18810;53.040;8.850;2023-09-07T02:52:14;6.75;;;6.15;;
32333;SDS011;18810;53.040;8.850;2023-09-07T02:54:40;7.38;;;6.68;;
32333;SDS011;18810;53.040;8.850;2023-09-07T02:57:06;7.72;;;6.60;;
32333;SDS011;18810;53.040;8.850;2023-09-07T02:59:32;7.32;;;6.63;;
32333;SDS011;18810;53.040;8.850;2023-09-07T03:01:58;8.20;;;6.88;;
32333;SDS011;18810;53.040;8.850;2023-09-07T03:04:23;8.27;;;6.60;;
32333;SDS011;18810;53.040;8.850;2023-09-07T03:06:49;7.70;;;6.82;;
32333;SDS011;18810;53.040;8.850;2023-09-07T03:09:15;7.15;;;6.47;;
32333;SDS011;18810;53.040;8.850;2023-09-07T03:11:43;8.38;;;7.50;;
32333;SDS011;18810;53.040;8.850;2023-09-07T03:14:09;8.32;;;7.22;;
32333;SDS011;18810;53.040;8.850;2023-09-07T03:16:34;7.60;;;6.88;;
32333;SDS011;18810;53.040;8.850;2023-09-07T03:19:00;9.02;;;7.43;;
32333;SDS011;18810;53.040;8.850;2023-09-07T03:21:26;9.00;;;7.55;;
32333;SDS011;18810;53.040;8.850;2023-09-07T03:23:54;9.90;;;7.60;;
32333;SDS011;18810;53.040;8.850;2023-09-07T03:26:23;9.48;;;7.95;;
32333;SDS011;18810;53.040;8.850;2023-09-07T03:28:49;9.98;;;7.47;;
32333;SDS011;18810;53.040;8.850;2023-09-07T03:31:15;8.63;;;7.85;;
32333;SDS011;18810;53.040;8.850;2023-09-07T03:33:40;8.52;;;7.63;;
32333;SDS011;18810;53.040;8.850;2023-09-07T03:36:06;9.77;;;7.38;;
32333;SDS011;18810;53.040;8.850;2023-09-07T03:38:31;12.45;;;8.27;;
32333;SDS011;18810;53.040;8.850;2023-09-07T03:40:57;8.85;;;7.95;;
32333;SDS011;18810;53.040;8.850;2023-09-07T03:43:23;10.02;;;7.93;;
32333;SDS011;18810;53.040;8.850;2023-09-07T03:45:49;8.57;;;7.55;;
32333;SDS011;18810;53.040;8.850;2023-09-07T03:48:14;8.73;;;7.85;;
32333;SDS011;18810;53.040;8.850;2023-09-07T03:50:40;8.50;;;7.47;;
32333;SDS011;18810;53.040;8.850;2023-09-07T03:53:06;9.65;;;7.78;;
32333;SDS011;18810;53.040;8.850;2023-09-07T03:55:39;7.85;;;7.05;;
32333;SDS011;18810;53.040;8.850;2023-09-07T03:58:06;12.00;;;8.95;;
32333;SDS011;18810;53.040;8.850;2023-09-07T04:00:33;9.02;;;8.10;;
32333;SDS011;18810;53.040;8.850;2023-09-07T04:02:59;8.93;;;7.82;;
32333;SDS011;18810;53.040;8.850;2023-09-07T04:05:24;12.65;;;8.45;;
32333;SDS011;18810;53.040;8.850;2023-09-07T04:07:50;10.48;;;9.02;;
32333;SDS011;18810;53.040;8.850;2023-09-07T04:10:16;11.00;;;9.20;;
32333;SDS011;18810;53.040;8.850;2023-09-07T04:12:41;11.85;;;9.38;;
32333;SDS011;18810;53.040;8.850;2023-09-07T04:15:07;10.45;;;9.38;;
32333;SDS011;18810;53.040;8.850;2023-09-07T04:17:33;9.82;;;8.93;;
32333;SDS011;18810;53.040;8.850;2023-09-07T04:20:05;11.50;;;10.18;;
32333;SDS011;18810;53.040;8.850;2023-09-07T04:22:33;12.50;;;10.80;;
32333;SDS011;18810;53.040;8.850;2023-09-07T04:24:58;11.88;;;10.38;;
32333;SDS011;18810;53.040;8.850;2023-09-07T04:27:24;12.77;;;10.55;;
32333;SDS011;18810;53.040;8.850;2023-09-07T04:29:50;11.35;;;10.15;;
32333;SDS011;18810;53.040;8.850;2023-09-07T04:32:16;13.80;;;10.68;;
32333;SDS011;18810;53.040;8.850;2023-09-07T04:34:42;11.88;;;10.55;;
32333;SDS011;18810;53.040;8.850;2023-09-07T04:37:10;16.17;;;11.05;;
32333;SDS011;18810;53.040;8.850;2023-09-07T04:39:36;11.48;;;10.27;;
32333;SDS011;18810;53.040;8.850;2023-09-07T04:42:02;11.80;;;10.10;;
32333;SDS011;18810;53.040;8.850;2023-09-07T04:44:27;13.55;;;9.68;;
32333;SDS011;18810;53.040;8.850;2023-09-07T04:46:56;12.15;;;10.63;;
32333;SDS011;18810;53.040;8.850;2023-09-07T04:49:25;12.07;;;9.65;;
32333;SDS011;18810;53.040;8.850;2023-09-07T04:51:54;12.93;;;11.38;;
32333;SDS011;18810;53.040;8.850;2023-09-07T04:54:20;11.23;;;10.02;;
32333;SDS011;18810;53.040;8.850;2023-09-07T04:56:45;12.02;;;10.82;;
32333;SDS011;18810;53.040;8.850;2023-09-07T04:59:14;12.23;;;10.57;;
32333;SDS011;18810;53.040;8.850;2023-09-07T05:01:40;13.40;;;9.77;;
32333;SDS011;18810;53.040;8.850;2023-09-07T05:04:06;13.23;;;11.13;;
32333;SDS011;18810;53.040;8.850;2023-09-07T05:06:31;13.55;;;11.20;;
32333;SDS011;18810;53.040;8.850;2023-09-07T05:09:02;13.68;;;10.98;;
32333;SDS011;18810;53.040;8.850;2023-09-07T05:11:28;12.60;;;11.20;;
32333;SDS011;18810;53.040;8.850;2023-09-07T05:13:54;14.98;;;11.20;;
32333;SDS011;18810;53.040;8.850;2023-09-07T05:16:19;12.32;;;11.02;;
32333;SDS011;18810;53.040;8.850;2023-09-07T05:18:45;13.38;;;11.05;;
32333;SDS011;18810;53.040;8.850;2023-09-07T05:21:11;15.50;;;12.00;;
32333;SDS011;18810;53.040;8.850;2023-09-07T05:23:41;13.43;;;10.63;;
32333;SDS011;18810;53.040;8.850;2023-09-07T05:26:07;14.48;;;11.10;;
32333;SDS011;18810;53.040;8.850;2023-09-07T05:28:33;12.55;;;10.93;;
32333;SDS011;18810;53.040;8.850;2023-09-07T05:30:58;10.73;;;9.63;;
32333;SDS011;18810;53.040;8.850;2023-09-07T05:33:24;12.93;;;10.68;;
32333;SDS011;18810;53.040;8.850;2023-09-07T05:35:50;13.07;;;10.80;;
32333;SDS011;18810;53.040;8.850;2023-09-07T05:38:15;18.85;;;11.35;;
32333;SDS011;18810;53.040;8.850;2023-09-07T05:40:41;13.15;;;10.90;;
32333;SDS011;18810;53.040;8.850;2023-09-07T05:43:09;12.10;;;10.80;;
32333;SDS011;18810;53.040;8.850;2023-09-07T05:45:36;13.65;;;10.77;;
32333;SDS011;18810;53.040;8.850;2023-09-07T05:48:04;12.02;;;9.75;;
32333;SDS011;18810;53.040;8.850;2023-09-07T05:50:30;12.40;;;10.27;;
32333;SDS011;18810;53.040;8.850;2023-09-07T05:52:56;12.95;;;11.15;;
32333;SDS011;18810;53.040;8.850;2023-09-07T05:55:22;13.60;;;9.95;;
32333;SDS011;18810;53.040;8.850;2023-09-07T05:57:48;12.93;;;10.23;;
32333;SDS011;18810;53.040;8.850;2023-09-07T06:00:15;15.23;;;10.60;;
32333;SDS011;18810;53.040;8.850;2023-09-07T06:02:42;13.73;;;11.38;;
32333;SDS011;18810;53.040;8.850;2023-09-07T06:05:08;12.00;;;9.80;;
32333;SDS011;18810;53.040;8.850;2023-09-07T06:07:35;12.48;;;11.18;;
32333;SDS011;18810;53.040;8.850;2023-09-07T06:10:00;12.80;;;10.45;;
32333;SDS011;18810;53.040;8.850;2023-09-07T06:12:26;16.00;;;10.20;;
32333;SDS011;18810;53.040;8.850;2023-09-07T06:14:52;13.10;;;10.73;;
32333;SDS011;18810;53.040;8.850;2023-09-07T06:17:18;13.60;;;10.70;;
32333;SDS011;18810;53.040;8.850;2023-09-07T06:19:44;12.38;;;11.13;;
32333;SDS011;18810;53.040;8.850;2023-09-07T06:22:09;14.82;;;11.20;;
32333;SDS011;18810;53.040;8.850;2023-09-07T06:24:35;13.27;;;9.88;;
32333;SDS011;18810;53.040;8.850;2023-09-07T06:27:01;11.30;;;10.10;;
32333;SDS011;18810;53.040;8.850;2023-09-07T06:29:27;12.57;;;10.85;;
32333;SDS011;18810;53.040;8.850;2023-09-07T06:31:52;10.20;;;8.90;;
32333;SDS011;18810;53.040;8.850;2023-09-07T06:34:18;11.73;;;9.20;;
32333;SDS011;18810;53.040;8.850;2023-09-07T06:36:43;10.00;;;9.00;;
32333;SDS011;18810;53.040;8.850;2023-09-07T06:39:09;14.25;;;10.25;;
32333;SDS011;18810;53.040;8.850;2023-09-07T06:41:35;10.98;;;9.80;;
32333;SDS011;18810;53.040;8.850;2023-09-07T06:44:01;12.05;;;9.65;;
32333;SDS011;18810;53.040;8.850;2023-09-07T06:46:26;14.63;;;9.93;;
32333;SDS011;18810;53.040;8.850;2023-09-07T06:48:52;11.68;;;10.45;;
32333;SDS011;18810;53.040;8.850;2023-09-07T06:51:17;11.48;;;9.00;;
32333;SDS011;18810;53.040;8.850;2023-09-07T06:53:43;11.45;;;9.73;;
32333;SDS011;18810;53.040;8.850;2023-09-07T06:56:09;9.98;;;8.90;;
32333;SDS011;18810;53.040;8.850;2023-09-07T06:58:35;16.23;;;9.40;;
32333;SDS011;18810;53.040;8.850;2023-09-07T07:01:01;10.32;;;9.23;;
32333;SDS011;18810;53.040;8.850;2023-09-07T07:03:27;13.77;;;8.93;;
32333;SDS011;18810;53.040;8.850;2023-09-07T07:05:57;11.15;;;9.10;;
32333;SDS011;18810;53.040;8.850;2023-09-07T07:08:23;13.18;;;9.27;;
32333;SDS011;18810;53.040;8.850;2023-09-07T07:10:49;11.15;;;9.57;;
32333;SDS011;18810;53.040;8.850;2023-09-07T07:13:14;15.23;;;9.77;;
32333;SDS011;18810;53.040;8.850;2023-09-07T07:15:41;11.18;;;9.45;;
32333;SDS011;18810;53.040;8.850;2023-09-07T07:18:06;9.60;;;8.60;;
32333;SDS011;18810;53.040;8.850;2023-09-07T07:20:36;9.35;;;8.40;;
32333;SDS011;18810;53.040;8.850;2023-09-07T07:23:03;12.05;;;9.20;;
32333;SDS011;18810;53.040;8.850;2023-09-07T07:25:29;9.13;;;8.23;;
32333;SDS011;18810;53.040;8.850;2023-09-07T07:27:58;9.90;;;8.80;;
32333;SDS011;18810;53.040;8.850;2023-09-07T07:30:26;11.18;;;9.20;;
32333;SDS011;18810;53.040;8.850;2023-09-07T07:32:54;11.82;;;8.95;;
32333;SDS011;18810;53.040;8.850;2023-09-07T07:35:20;11.20;;;8.25;;
32333;SDS011;18810;53.040;8.850;2023-09-07T07:37:46;11.80;;;8.65;;
32333;SDS011;18810;53.040;8.850;2023-09-07T07:40:12;14.00;;;7.47;;
32333;SDS011;18810;53.040;8.850;2023-09-07T07:42:38;12.20;;;7.53;;
32333;SDS011;18810;53.040;8.850;2023-09-07T07:45:03;10.75;;;7.95;;
32333;SDS011;18810;53.040;8.850;2023-09-07T07:47:29;10.27;;;8.43;;
32333;SDS011;18810;53.040;8.850;2023-09-07T07:49:55;12.15;;;8.48;;
32333;SDS011;18810;53.040;8.850;2023-09-07T07:52:21;10.18;;;8.02;;
32333;SDS011;18810;53.040;8.850;2023-09-07T07:54:47;8.73;;;7.82;;
32333;SDS011;18810;53.040;8.850;2023-09-07T07:57:12;10.18;;;7.35;;
32333;SDS011;18810;53.040;8.850;2023-09-07T07:59:38;8.55;;;7.65;;
32333;SDS011;18810;53.040;8.850;2023-09-07T08:02:03;10.63;;;7.43;;
32333;SDS011;18810;53.040;8.850;2023-09-07T08:04:31;11.80;;;7.85;;
32333;SDS011;18810;53.040;8.850;2023-09-07T08:06:57;9.77;;;7.28;;
32333;SDS011;18810;53.040;8.850;2023-09-07T08:09:28;13.77;;;7.30;;
32333;SDS011;18810;53.040;8.850;2023-09-07T08:11:55;10.98;;;7.22;;
32333;SDS011;18810;53.040;8.850;2023-09-07T08:14:21;8.75;;;7.72;;
32333;SDS011;18810;53.040;8.850;2023-09-07T08:16:47;10.80;;;7.90;;
32333;SDS011;18810;53.040;8.850;2023-09-07T08:19:13;10.50;;;7.38;;
32333;SDS011;18810;53.040;8.850;2023-09-07T08:21:39;8.00;;;7.20;;
32333;SDS011;18810;53.040;8.850;2023-09-07T08:24:07;11.05;;;7.78;;
32333;SDS011;18810;53.040;8.850;2023-09-07T08:26:33;8.05;;;7.25;;
32333;SDS011;18810;53.040;8.850;2023-09-07T08:28:59;8.52;;;7.15;;
32333;SDS011;18810;53.040;8.850;2023-09-07T08:31:30;8.93;;;7.22;;
32333;SDS011;18810;53.040;8.850;2023-09-07T08:33:56;7.82;;;6.90;;
32333;SDS011;18810;53.040;8.850;2023-09-07T08:36:22;10.88;;;6.80;;
32333;SDS011;18810;53.040;8.850;2023-09-07T08:38:50;9.35;;;8.00;;
32333;SDS011;18810;53.040;8.850;2023-09-07T08:41:18;7.78;;;6.97;;
32333;SDS011;18810;53.040;8.850;2023-09-07T08:43:45;8.02;;;7.22;;
32333;SDS011;18810;53.040;8.850;2023-09-07T08:46:18;8.38;;;7.40;;
32333;SDS011;18810;53.040;8.850;2023-09-07T08:48:46;8.30;;;6.75;;
32333;SDS011;18810;53.040;8.850;2023-09-07T08:51:17;7.15;;;6.53;;
32333;SDS011;18810;53.040;8.850;2023-09-07T08:53:43;8.38;;;7.60;;
32333;SDS011;18810;53.040;8.850;2023-09-07T08:56:11;7.50;;;6.80;;
32333;SDS011;18810;53.040;8.850;2023-09-07T08:58:37;8.35;;;7.15;;
32333;SDS011;18810;53.040;8.850;2023-09-07T09:01:05;9.40;;;7.43;;
32333;SDS011;18810;53.040;8.850;2023-09-07T09:03:31;9.35;;;7.13;;
32333;SDS011;18810;53.040;8.850;2023-09-07T09:05:56;9.25;;;6.97;;
32333;SDS011;18810;53.040;8.850;2023-09-07T09:08:22;8.02;;;7.20;;
32333;SDS011;18810;53.040;8.850;2023-09-07T09:10:59;8.30;;;7.30;;
32333;SDS011;18810;53.040;8.850;2023-09-07T09:13:32;8.25;;;7.13;;
32333;SDS011;18810;53.040;8.850;2023-09-07T09:16:01;7.70;;;6.90;;
32333;SDS011;18810;53.040;8.850;2023-09-07T09:18:29;7.85;;;7.05;;
32333;SDS011;18810;53.040;8.850;2023-09-07T09:20:55;8.35;;;7.18;;
32333;SDS011;18810;53.040;8.850;2023-09-07T09:23:21;11.10;;;7.43;;
32333;SDS011;18810;53.040;8.850;2023-09-07T09:25:50;8.10;;;7.22;;
32333;SDS011;18810;53.040;8.850;2023-09-07T09:28:16;10.50;;;7.60;;
32333;SDS011;18810;53.040;8.850;2023-09-07T09:30:42;8.27;;;7.50;;
32333;SDS011;18810;53.040;8.850;2023-09-07T09:33:10;8.95;;;7.07;;
32333;SDS011;18810;53.040;8.850;2023-09-07T09:35:36;8.25;;;7.10;;
32333;SDS011;18810;53.040;8.850;2023-09-07T09:38:03;11.23;;;7.82;;
32333;SDS011;18810;53.040;8.850;2023-09-07T09:40:29;9.48;;;7.05;;
32333;SDS011;18810;53.040;8.850;2023-09-07T09:43:03;8.18;;;6.97;;
32333;SDS011;18810;53.040;8.850;2023-09-07T09:45:30;9.40;;;7.28;;
32333;SDS011;18810;53.040;8.850;2023-09-07T09:47:58;9.23;;;7.40;;
32333;SDS011;18810;53.040;8.850;2023-09-07T09:50:26;10.38;;;7.57;;
32333;SDS011;18810;53.040;8.850;2023-09-07T09:52:53;8.05;;;6.60;;
32333;SDS011;18810;53.040;8.850;2023-09-07T09:55:19;8.38;;;6.30;;
32333;SDS011;18810;53.040;8.850;2023-09-07T09:57:44;7.22;;;6.60;;
32333;SDS011;18810;53.040;8.850;2023-09-07T10:00:10;9.80;;;6.82;;
32333;SDS011;18810;53.040;8.850;2023-09-07T10:02:54;7.20;;;6.50;;
32333;SDS011;18810;53.040;8.850;2023-09-07T10:05:25;8.10;;;6.28;;
32333;SDS011;18810;53.040;8.850;2023-09-07T10:07:52;8.75;;;6.72;;
32333;SDS011;18810;53.040;8.850;2023-09-07T10:10:18;7.68;;;6.22;;
32333;SDS011;18810;53.040;8.850;2023-09-07T10:12:53;8.27;;;5.83;;
32333;SDS011;18810;53.040;8.850;2023-09-07T10:15:22;6.90;;;5.97;;
32333;SDS011;18810;53.040;8.850;2023-09-07T10:20:50;6.47;;;5.88;;
32333;SDS011;18810;53.040;8.850;2023-09-07T10:23:20;7.30;;;5.72;;
32333;SDS011;18810;53.040;8.850;2023-09-07T10:25:50;6.32;;;5.72;;
32333;SDS011;18810;53.040;8.850;2023-09-07T10:28:24;6.25;;;5.65;;
32333;SDS011;18810;53.040;8.850;2023-09-07T10:31:12;6.90;;;5.57;;
32333;SDS011;18810;53.040;8.850;2023-09-07T10:33:39;8.27;;;5.90;;
32333;SDS011;18810;53.040;8.850;2023-09-07T10:36:05;6.20;;;5.60;;
32333;SDS011;18810;53.040;8.850;2023-09-07T10:38:34;7.05;;;6.35;;
32333;SDS011;18810;53.040;8.850;2023-09-07T10:41:01;8.25;;;5.63;;
32333;SDS011;18810;53.040;8.850;2023-09-07T10:43:29;6.22;;;5.63;;
32333;SDS011;18810;53.040;8.850;2023-09-07T10:45:56;7.55;;;5.60;;
32333;SDS011;18810;53.040;8.850;2023-09-07T10:48:24;6.00;;;5.50;;
32333;SDS011;18810;53.040;8.850;2023-09-07T10:50:50;6.47;;;5.88;;
32333;SDS011;18810;53.040;8.850;2023-09-07T10:53:23;6.57;;;5.88;;
32333;SDS011;18810;53.040;8.850;2023-09-07T10:55:52;6.85;;;5.63;;
32333;SDS011;18810;53.040;8.850;2023-09-07T10:58:30;6.93;;;6.07;;
32333;SDS011;18810;53.040;8.850;2023-09-07T11:00:57;7.70;;;6.22;;
32333;SDS011;18810;53.040;8.850;2023-09-07T11:03:27;7.07;;;5.97;;
32333;SDS011;18810;53.040;8.850;2023-09-07T11:05:57;7.72;;;5.95;;
32333;SDS011;18810;53.040;8.850;2023-09-07T11:08:30;7.47;;;6.07;;
32333;SDS011;18810;53.040;8.850;2023-09-07T11:10:56;6.70;;;6.00;;
32333;SDS011;18810;53.040;8.850;2023-09-07T11:13:25;6.18;;;5.55;;
32333;SDS011;18810;53.040;8.850;2023-09-07T11:15:58;7.68;;;6.90;;
32333;SDS011;18810;53.040;8.850;2023-09-07T11:18:25;7.00;;;6.13;;
32333;SDS011;18810;53.040;8.850;2023-09-07T11:20:51;5.93;;;5.22;;
32333;SDS011;18810;53.040;8.850;2023-09-07T11:23:18;6.53;;;5.32;;
32333;SDS011;18810;53.040;8.850;2023-09-07T11:25:45;6.07;;;5.50;;
32333;SDS011;18810;53.040;8.850;2023-09-07T11:28:14;6.90;;;5.70;;
32333;SDS011;18810;53.040;8.850;2023-09-07T11:30:51;5.82;;;5.22;;
32333;SDS011;18810;53.040;8.850;2023-09-07T11:33:18;6.13;;;5.45;;
32333;SDS011;18810;53.040;8.850;2023-09-07T11:35:45;5.97;;;5.47;;
32333;SDS011;18810;53.040;8.850;2023-09-07T11:38:12;5.97;;;5.47;;
32333;SDS011;18810;53.040;8.850;2023-09-07T11:40:39;9.25;;;5.55;;
32333;SDS011;18810;53.040;8.850;2023-09-07T11:43:07;5.82;;;5.32;;
32333;SDS011;18810;53.040;8.850;2023-09-07T11:45:33;5.80;;;5.30;;
32333;SDS011;18810;53.040;8.850;2023-09-07T11:47:59;6.15;;;5.13;;
32333;SDS011;18810;53.040;8.850;2023-09-07T11:50:24;5.75;;;5.22;;
32333;SDS011;18810;53.040;8.850;2023-09-07T11:52:50;6.50;;;5.40;;
32333;SDS011;18810;53.040;8.850;2023-09-07T11:55:16;6.03;;;5.45;;
32333;SDS011;18810;53.040;8.850;2023-09-07T11:57:42;6.65;;;5.07;;
32333;SDS011;18810;53.040;8.850;2023-09-07T12:00:08;7.55;;;5.70;;
32333;SDS011;18810;53.040;8.850;2023-09-07T12:02:38;5.82;;;5.20;;
32333;SDS011;18810;53.040;8.850;2023-09-07T12:05:04;6.05;;;5.43;;
32333;SDS011;18810;53.040;8.850;2023-09-07T12:07:32;7.28;;;5.35;;
32333;SDS011;18810;53.040;8.850;2023-09-07T12:09:58;5.38;;;4.95;;
32333;SDS011;18810;53.040;8.850;2023-09-07T12:12:24;6.90;;;4.95;;
32333;SDS011;18810;53.040;8.850;2023-09-07T12:14:50;7.55;;;5.00;;
32333;SDS011;18810;53.040;8.850;2023-09-07T12:17:15;6.68;;;4.70;;
32333;SDS011;18810;53.040;8.850;2023-09-07T12:19:41;5.22;;;4.75;;
32333;SDS011;18810;53.040;8.850;2023-09-07T12:22:07;5.82;;;4.72;;
32333;SDS011;18810;53.040;8.850;2023-09-07T12:24:33;6.38;;;5.15;;
32333;SDS011;18810;53.040;8.850;2023-09-07T12:26:59;5.70;;;5.18;;
32333;SDS011;18810;53.040;8.850;2023-09-07T12:29:25;6.50;;;4.93;;
32333;SDS011;18810;53.040;8.850;2023-09-07T12:31:50;5.65;;;5.00;;
32333;SDS011;18810;53.040;8.850;2023-09-07T12:34:16;6.03;;;4.80;;
32333;SDS011;18810;53.040;8.850;2023-09-07T12:36:42;5.97;;;4.88;;
32333;SDS011;18810;53.040;8.850;2023-09-07T12:39:07;5.07;;;4.30;;
32333;SDS011;18810;53.040;8.850;2023-09-07T12:41:33;6.38;;;4.75;;
32333;SDS011;18810;53.040;8.850;2023-09-07T12:43:59;5.18;;;4.68;;
32333;SDS011;18810;53.040;8.850;2023-09-07T12:46:25;5.30;;;4.80;;
32333;SDS011;18810;53.040;8.850;2023-09-07T12:48:50;5.32;;;4.25;;
32333;SDS011;18810;53.040;8.850;2023-09-07T12:51:16;8.25;;;5.20;;
32333;SDS011;18810;53.040;8.850;2023-09-07T12:53:42;6.25;;;5.32;;
32333;SDS011;18810;53.040;8.850;2023-09-07T12:56:07;6.90;;;5.25;;
32333;SDS011;18810;53.040;8.850;2023-09-07T12:58:33;5.50;;;4.40;;
32333;SDS011;18810;53.040;8.850;2023-09-07T13:00:59;5.18;;;4.70;;
32333;SDS011;18810;53.040;8.850;2023-09-07T13:03:24;5.97;;;5.03;;
32333;SDS011;18810;53.040;8.850;2023-09-07T13:05:50;5.82;;;4.45;;
32333;SDS011;18810;53.040;8.850;2023-09-07T13:08:15;6.03;;;4.95;;
32333;SDS011;18810;53.040;8.850;2023-09-07T13:10:41;6.80;;;4.38;;
32333;SDS011;18810;53.040;8.850;2023-09-07T13:13:07;7.45;;;5.10;;
32333;SDS011;18810;53.040;8.850;2023-09-07T13:15:32;6.38;;;4.70;;
32333;SDS011;18810;53.040;8.850;2023-09-07T13:17:59;5.95;;;4.32;;
32333;SDS011;18810;53.040;8.850;2023-09-07T13:20:25;5.35;;;4.80;;
32333;SDS011;18810;53.040;8.850;2023-09-07T13:22:50;5.35;;;4.75;;
32333;SDS011;18810;53.040;8.850;2023-09-07T13:25:17;5.63;;;4.57;;
32333;SDS011;18810;53.040;8.850;2023-09-07T13:27:42;5.65;;;4.80;;
32333;SDS011;18810;53.040;8.850;2023-09-07T13:30:08;5.95;;;5.30;;
32333;SDS011;18810;53.040;8.850;2023-09-07T13:32:34;5.57;;;5.07;;
32333;SDS011;18810;53.040;8.850;2023-09-07T13:35:00;6.57;;;5.97;;
32333;SDS011;18810;53.040;8.850;2023-09-07T13:37:26;5.32;;;4.82;;
32333;SDS011;18810;53.040;8.850;2023-09-07T13:39:51;6.78;;;5.15;;
32333;SDS011;18810;53.040;8.850;2023-09-07T13:42:17;5.50;;;5.00;;
32333;SDS011;18810;53.040;8.850;2023-09-07T13:44:43;8.07;;;4.90;;
32333;SDS011;18810;53.040;8.850;2023-09-07T13:47:10;8.07;;;5.18;;
32333;SDS011;18810;53.040;8.850;2023-09-07T13:49:36;5.68;;;4.93;;
32333;SDS011;18810;53.040;8.850;2023-09-07T13:52:02;5.68;;;5.18;;
32333;SDS011;18810;53.040;8.850;2023-09-07T13:54:28;5.47;;;4.55;;
32333;SDS011;18810;53.040;8.850;2023-09-07T13:56:54;5.53;;;5.00;;
32333;SDS011;18810;53.040;8.850;2023-09-07T13:59:19;5.30;;;4.80;;
32333;SDS011;18810;53.040;8.850;2023-09-07T14:01:45;6.30;;;4.85;;
32333;SDS011;18810;53.040;8.850;2023-09-07T14:04:10;6.55;;;5.40;;
32333;SDS011;18810;53.040;8.850;2023-09-07T14:06:36;6.95;;;5.68;;
32333;SDS011;18810;53.040;8.850;2023-09-07T14:09:02;6.25;;;5.00;;
32333;SDS011;18810;53.040;8.850;2023-09-07T14:11:27;6.55;;;5.80;;
32333;SDS011;18810;53.040;8.850;2023-09-07T14:13:53;10.60;;;5.50;;
32333;SDS011;18810;53.040;8.850;2023-09-07T14:16:19;5.97;;;5.38;;
32333;SDS011;18810;53.040;8.850;2023-09-07T14:18:46;5.78;;;5.28;;
32333;SDS011;18810;53.040;8.850;2023-09-07T14:21:13;9.00;;;5.55;;
32333;SDS011;18810;53.040;8.850;2023-09-07T14:23:42;6.13;;;5.55;;
32333;SDS011;18810;53.040;8.850;2023-09-07T14:26:08;7.32;;;5.55;;
32333;SDS011;18810;53.040;8.850;2023-09-07T14:28:34;5.90;;;5.30;;
32333;SDS011;18810;53.040;8.850;2023-09-07T14:31:01;6.63;;;5.70;;
32333;SDS011;18810;53.040;8.850;2023-09-07T14:33:31;6.57;;;5.30;;
32333;SDS011;18810;53.040;8.850;2023-09-07T14:35:57;7.13;;;5.60;;
32333;SDS011;18810;53.040;8.850;2023-09-07T14:38:23;6.05;;;5.50;;
32333;SDS011;18810;53.040;8.850;2023-09-07T14:40:51;7.03;;;5.70;;
32333;SDS011;18810;53.040;8.850;2023-09-07T14:43:20;5.95;;;5.28;;